• Join FlightAware (Why Join?)
  • Login
  • US Flag 
12:52PM EDT


 

Airport Tracker/Info


-or-


 

Live Flight TrackerFlight Track Log ✈ DAL5814 ✈ 07-Oct-2013 ✈ KJAX - KLGA

Flight Track Log - Related Links

Times and Time Zones

All times are in EDT time to prevent confusion due to time zone crossing. See the DAL5814 flight status page for this flight to view local times or setup timezone preferences in your user account.

Time Position Orientation Groundspeed Altitude Reporting Facility
EDT Latitude Longitude Course Direction KTS MPH feet Rate Location/Type
07:10AM 30.5069 -81.6653 24° Northeast 157 181 700  Level Jacksonville Center
07:10AM 30.5131 -81.6458 70° East 162 186 1,400 1,500 Climbing Jacksonville Center
07:11AM 30.5522 -81.6019 44° Northeast 210 242 2,900 1,320 Climbing Jacksonville Center
07:11AM 30.5606 -81.5922 45° Northeast 234 269 3,200 2,160 Climbing Jacksonville Center
07:12AM 30.6039 -81.5433 44° Northeast 277 319 5,100 2,160 Climbing Jacksonville Center
07:12AM 30.6164 -81.5311 40° Northeast 299 344 5,400 2,580 Climbing Jacksonville Center
07:13AM 30.9204 -81.4066 19° North  Level Estimated
07:13AM 30.6761 -81.4675 42° Northeast 306 352 8,500  Level Jacksonville Center
07:14AM 31.0269 -81.3359 356° North  Level Estimated
07:14AM 30.7422 -81.4014 41° Northeast 306 352 10,800  Level Jacksonville Center
07:15AM 31.1388 -81.2777 24° Northeast  Level FlightAware Approximate
07:15AM 30.8381 -81.3803 11° North 317 365 12,600  Level Jacksonville Center
07:16AM 30.9400 -81.3667 North 345 397 14,500 1,980 Climbing Jacksonville Center
07:17AM 31.0506 -81.3528 North 368 423 16,600 1,860 Climbing Jacksonville Center
07:18AM 31.1611 -81.3389 North 383 441 18,300 1,560 Climbing Jacksonville Center
07:19AM 31.2778 -81.3222 North 403 464 19,800 1,680 Climbing Jacksonville Center
07:20AM 31.4069 -81.3006 North 429 494 21,700 1,620 Climbing Jacksonville Center
07:21AM 31.5153 -81.2867 North 434 499 23,100 1,440 Climbing Jacksonville Center
07:22AM 31.6508 -81.2647 North 440 506 24,600 1,200 Climbing Jacksonville Center
07:23AM 31.7650 -81.2064 23° Northeast 440 506 25,600 1,020 Climbing Jacksonville Center
07:24AM 31.8664 -81.1411 29° Northeast 451 519 26,700 1,200 Climbing Jacksonville Center
07:25AM 31.9947 -81.0628 27° Northeast 457 526 28,100 1,080 Climbing Jacksonville Center
07:26AM 32.1003 -80.9992 27° Northeast 465 535 28,900 900 Climbing Jacksonville Center
07:27AM 32.2283 -80.9231 27° Northeast 465 535 30,000 960 Climbing Jacksonville Center
07:28AM 32.3319 -80.8617 27° Northeast 459 528 30,900 840 Climbing Jacksonville Center
07:29AM 32.4600 -80.7800 28° Northeast 464 534 31,700 840 Climbing Jacksonville Center
07:30AM 32.5756 -80.7083 28° Northeast 464 534 32,600 840 Climbing Jacksonville Center
07:31AM 32.6933 -80.6339 28° Northeast 464 534 33,400 840 Climbing Jacksonville Center
07:32AM 32.8047 -80.5669 27° Northeast 464 534 34,300 780 Climbing Jacksonville Center
07:33AM 32.9247 -80.4994 25° Northeast 464 534 35,000 300 Climbing Jacksonville Center
07:34AM 33.0467 -80.4342 24° Northeast 464 534 35,000  Level Jacksonville Center
07:35AM 33.1600 -80.3692 26° Northeast 476 548 35,000  Level Jacksonville Center
07:36AM 33.2922 -80.2958 25° Northeast 481 554 35,000  Level Jacksonville Center
07:37AM 33.4014 -80.2331 26° Northeast 481 554 35,000  Level Jacksonville Center
07:38AM 33.5211 -80.1644 26° Northeast 476 548 35,000  Level Jacksonville Center
07:39AM 33.6447 -80.0933 26° Northeast 481 554 35,000  Level Jacksonville Center
07:40AM 33.7664 -80.0244 25° Northeast 481 554 35,000  Level Jacksonville Center
07:42AM 33.9517 -79.9175 26° Northeast 456 525 35,000  Level Washington Center
07:43AM 34.0753 -79.8464 25° Northeast 468 539 35,000  Level Washington Center
07:44AM 34.1967 -79.7772 25° Northeast 473 544 35,000  Level Washington Center
07:45AM 34.3308 -79.6961 27° Northeast 473 544 35,000  Level Washington Center
07:46AM 34.4542 -79.6267 25° Northeast 473 544 35,000  Level Washington Center
07:47AM 34.5756 -79.5544 26° Northeast 473 544 35,000  Level Washington Center
07:48AM 34.6969 -79.4847 25° Northeast 473 544 35,000  Level Washington Center
07:49AM 34.8181 -79.4119 26° Northeast 473 544 35,000  Level Washington Center
07:50AM 34.9392 -79.3442 25° Northeast 473 544 35,000  Level Washington Center
07:51AM 35.0647 -79.2689 26° Northeast 473 544 35,000  Level Washington Center
07:52AM 35.1836 -79.1981 26° Northeast 473 544 35,000  Level Washington Center
07:53AM 35.3067 -79.1272 25° Northeast 478 550 35,000  Level Washington Center
07:54AM 35.4200 -79.0353 33° Northeast 487 560 35,000  Level Washington Center
07:55AM 35.5253 -78.9353 38° Northeast 475 547 35,000  Level Washington Center
07:56AM 35.6322 -78.8325 38° Northeast 475 547 35,000  Level Washington Center
07:57AM 35.7417 -78.7244 39° Northeast 486 559 35,000  Level Washington Center
07:58AM 35.8508 -78.6158 39° Northeast 491 565 35,000  Level Washington Center
07:59AM 35.9558 -78.5094 39° Northeast 491 565 35,000  Level Washington Center
08:00AM 36.0647 -78.4031 38° Northeast 491 565 35,000  Level Washington Center
08:01AM 36.1736 -78.2964 38° Northeast 491 565 35,000  Level Washington Center
08:02AM 36.2825 -78.1867 39° Northeast 491 565 35,000  Level Washington Center
08:03AM 36.3761 -78.0917 39° Northeast 491 565 35,000  Level Washington Center
08:04AM 36.4914 -77.9742 39° Northeast 491 565 35,000  Level Washington Center
08:05AM 36.5978 -77.8633 40° Northeast 491 565 35,000  Level Washington Center
08:06AM 36.7019 -77.7603 38° Northeast 486 559 35,000  Level Washington Center
08:07AM 36.8081 -77.6517 39° Northeast 486 559 35,000  Level Washington Center
08:08AM 36.9142 -77.5428 39° Northeast 486 559 35,000  Level Washington Center
08:09AM 37.0181 -77.4361 39° Northeast 486 559 35,000  Level Washington Center
08:10AM 37.1219 -77.3292 39° Northeast 486 559 35,000  Level Washington Center
08:11AM 37.2256 -77.2219 39° Northeast 481 554 35,000  Level Washington Center
08:12AM 37.3314 -77.1172 38° Northeast 481 554 35,000  Level Washington Center
08:13AM 37.4472 -77.0253 32° Northeast 488 562 35,000  Level Washington Center
08:14AM 37.5608 -76.9461 29° Northeast 497 572 35,000  Level Washington Center
08:15AM 37.6744 -76.8617 30° Northeast 492 566 35,000  Level Washington Center
08:16AM 37.7900 -76.7742 31° Northeast 485 558 35,000  Level Washington Center
08:17AM 37.9033 -76.6867 31° Northeast 485 558 35,000  Level Washington Center
08:18AM 38.0250 -76.5986 30° Northeast 485 558 35,000  Level Washington Center
08:19AM 38.1406 -76.5106 31° Northeast 485 558 35,000  Level Washington Center
08:20AM 38.2578 -76.4219 31° Northeast 485 558 35,000  Level Washington Center
08:21AM 38.3794 -76.3147 35° Northeast 485 558 35,000  Level Washington Center
08:22AM 38.4906 -76.2125 36° Northeast 485 558 35,000 -180 Level Washington Center
08:23AM 38.5911 -76.1203 36° Northeast 485 558 34,700 -1,440 Descending Washington Center
08:24AM 38.7042 -76.0172 35° Northeast 491 565 32,200 -2,700 Descending Washington Center
08:25AM 38.8150 -75.9114 37° Northeast 496 571 29,500 -2,700 Descending Washington Center
08:26AM 38.9256 -75.8050 37° Northeast 496 571 27,000 -1,260 Descending Washington Center
08:27AM 39.0342 -75.7039 36° Northeast 491 565 27,000  Level Washington Center
08:28AM 39.1447 -75.6022 35° Northeast 491 565 27,000  Level Washington Center
08:29AM 39.2531 -75.4978 37° Northeast 491 565 27,000  Level Washington Center
08:30AM 39.3656 -75.4011 34° Northeast 485 558 27,000 -900 Level Washington Center
08:31AM 39.4756 -75.3011 35° Northeast 485 558 25,300 -2,100 Descending Washington Center
08:32AM 39.5817 -75.2011 36° Northeast 480 552 22,800 -2,520 Descending Washington Center
08:33AM 39.6958 -75.0981 35° Northeast 467 537 20,200 -2,580 Descending Washington Center
08:34AM 39.7975 -75.0108 33° Northeast 441 507 17,700 -2,340 Descending Washington Center
08:35AM 39.8950 -74.9261 34° Northeast 429 494 15,700 -2,220 Descending Washington Center
08:36AM 39.9756 -74.8200 45° Northeast 421 484 13,300 -2,280 Descending Washington Center
08:37AM 40.0500 -74.7000 51° Northeast 389 448 11,000 -1,680 Descending New York TRACON
08:38AM 40.1167 -74.6167 44° Northeast 372 428 10,000 -540 Descending New York TRACON
08:39AM 40.2000 -74.5000 47° Northeast 382 440 10,000  Level New York TRACON
08:40AM 40.2667 -74.4167 44° Northeast 359 413 10,000 -720 Level New York TRACON
08:41AM 40.3333 -74.3333 44° Northeast 325 374 8,600 -1,500 Descending New York TRACON
08:42AM 40.4000 -74.2500 44° Northeast 317 365 7,000 -840 Descending New York TRACON
08:43AM 40.4667 -74.1667 44° Northeast 309 356 7,000 -300 Level New York TRACON
08:44AM 40.5167 -74.1167 37° Northeast 270 311 6,400 -900 Descending New York TRACON
08:45AM 40.6000 -74.1000 North 265 305 5,200 -1,020 Descending New York TRACON
08:46AM 40.6667 -74.0833 11° North 232 267 4,400 -600 Descending New York TRACON
08:47AM 40.7167 -74.0500 27° Northeast 227 261 4,000 -240 Descending New York TRACON
08:48AM 40.7667 -74.0167 27° Northeast 228 262 4,000  Level New York TRACON
08:49AM 40.8333 -73.9833 21° North 225 259 4,000  Level New York TRACON
08:50AM 40.8833 -73.9500 27° Northeast 228 262 4,000  Level New York TRACON
08:51AM 40.9333 -73.9000 37° Northeast 224 258 4,000  Level New York TRACON
08:52AM 40.9667 -73.8500 49° Northeast 221 254 4,000  Level New York TRACON
08:53AM 40.9833 -73.7667 75° East 209 241 4,000 -180 Level New York TRACON
08:54AM 40.9667 -73.7333 124° Southeast 165 190 3,700 -540 Descending New York TRACON
08:55AM 40.9333 -73.7500 201° Southwest 170 196 3,000 -780 Descending New York TRACON
08:56AM 40.8833 -73.7833 207° Southwest 161 185 2,300 -780 Descending New York TRACON
08:57AM 40.8500 -73.8167 217° Southwest 158 182 1,500 -780 Descending New York TRACON
08:58AM 40.8167 -73.8500 217° Southwest 124 143 700 -660 Descending New York TRACON
08:59AM 40.7833 -73.8667 201° Southwest 121 139 200 -540 Descending New York TRACON